createdAt,value
2023-03-27T00:00:42.395Z,3.38
2023-03-27T00:04:54.710Z,3.34
2023-03-27T00:08:56.897Z,3.37
2023-03-27T00:12:59.562Z,3.40
2023-03-27T00:17:02.857Z,3.35
2023-03-27T00:21:05.350Z,3.39
2023-03-27T00:25:08.569Z,3.33
2023-03-27T00:29:13.456Z,3.32
2023-03-27T00:33:15.848Z,3.26
2023-03-27T00:37:18.154Z,3.24
2023-03-27T00:41:21.654Z,3.17
2023-03-27T00:45:28.886Z,2.89
2023-03-27T00:49:35.609Z,2.88
2023-03-27T00:53:37.769Z,2.82
2023-03-27T00:57:42.245Z,2.81
2023-03-27T01:01:45.711Z,2.87
2023-03-27T01:05:50.074Z,2.94
2023-03-27T01:09:52.493Z,3.03
2023-03-27T01:14:36.629Z,3.02
2023-03-27T01:18:54.287Z,2.58
2023-03-27T01:23:35.934Z,2.52
2023-03-27T01:28:02.888Z,2.44
2023-03-27T01:32:24.203Z,2.42
2023-03-27T01:36:43.061Z,2.31
2023-03-27T01:40:56.854Z,2.57
2023-03-27T01:45:12.128Z,2.58
2023-03-27T01:49:39.994Z,2.57
2023-03-27T01:53:56.684Z,2.53
2023-03-27T01:58:03.223Z,2.43
2023-03-27T02:02:13.437Z,2.31
2023-03-27T02:06:23.884Z,2.14
2023-03-27T02:10:32.682Z,2.13
2023-03-27T02:14:46.262Z,2.04
2023-03-27T02:19:11.469Z,2.02
2023-03-27T02:23:13.998Z,2.10
2023-03-27T02:27:31.284Z,2.02
2023-03-27T02:31:52.181Z,1.97
2023-03-27T02:36:11.176Z,2.00
2023-03-27T02:40:16.531Z,1.90
2023-03-27T02:44:46.449Z,1.82
2023-03-27T02:48:54.126Z,1.72
2023-03-27T02:53:00.159Z,1.68
2023-03-27T02:57:10.603Z,1.70
2023-03-27T03:01:42.227Z,1.70
2023-03-27T03:05:44.794Z,1.50
2023-03-27T03:09:46.865Z,1.49
2023-03-27T03:13:48.865Z,1.27
2023-03-27T03:17:51.479Z,1.40
2023-03-27T03:21:53.791Z,1.34
2023-03-27T03:25:56.997Z,1.34
2023-03-27T03:30:09.464Z,1.34
2023-03-27T03:34:34.809Z,1.34
2023-03-27T03:38:38.108Z,1.27
2023-03-27T03:42:49.962Z,1.39
2023-03-27T03:46:54.416Z,1.48
2023-03-27T03:50:56.999Z,1.68
2023-03-27T03:54:59.322Z,1.77
2023-03-27T03:59:01.618Z,1.96
2023-03-27T04:03:05.736Z,2.10
2023-03-27T04:07:09.892Z,2.26
2023-03-27T04:11:18.770Z,2.37
2023-03-27T04:15:40.827Z,2.49
2023-03-27T04:19:54.195Z,2.59
2023-03-27T04:24:02.330Z,2.61
2023-03-27T04:28:16.946Z,2.89
2023-03-27T04:32:26.309Z,2.99
2023-03-27T04:36:57.650Z,3.06
2023-03-27T04:41:01.701Z,3.14
2023-03-27T04:45:04.490Z,3.17
2023-03-27T04:49:06.664Z,3.24
2023-03-27T04:53:31.140Z,2.88
2023-03-27T04:57:35.124Z,3.02
2023-03-27T05:01:37.246Z,2.97
2023-03-27T05:06:05.372Z,3.26
2023-03-27T05:10:08.115Z,3.21
2023-03-27T05:14:11.333Z,3.12
2023-03-27T05:18:16.672Z,3.62
2023-03-27T05:22:21.778Z,3.46
2023-03-27T05:26:32.767Z,3.54
2023-03-27T05:30:35.412Z,3.95
2023-03-27T05:34:54.635Z,4.21
2023-03-27T05:38:58.657Z,4.36
2023-03-27T05:43:07.379Z,4.66
2023-03-27T05:47:10.958Z,5.06
2023-03-27T05:51:13.291Z,5.01
2023-03-27T05:55:15.807Z,5.10
2023-03-27T05:59:19.268Z,5.45
2023-03-27T06:03:24.921Z,5.63
2023-03-27T06:07:39.088Z,5.55
2023-03-27T06:11:42.940Z,5.89
2023-03-27T06:15:45.274Z,5.73
2023-03-27T06:20:10.874Z,5.98
2023-03-27T06:24:13.084Z,5.77
2023-03-27T06:28:15.385Z,5.89
2023-03-27T06:32:22.199Z,5.60
2023-03-27T06:36:28.917Z,5.75
2023-03-27T06:40:35.180Z,5.80
2023-03-27T06:44:37.284Z,6.03
2023-03-27T06:49:04.620Z,5.75
2023-03-27T06:53:19.696Z,5.95
2023-03-27T06:57:25.973Z,6.11
2023-03-27T07:01:31.688Z,6.18
2023-03-27T07:06:06.295Z,6.35
2023-03-27T07:10:23.002Z,6.39
2023-03-27T07:14:25.000Z,6.45
2023-03-27T07:18:27.211Z,6.70
2023-03-27T07:22:31.065Z,6.86
2023-03-27T07:26:39.735Z,7.01
2023-03-27T07:30:47.271Z,7.14
2023-03-27T07:34:56.284Z,7.31
2023-03-27T07:39:17.070Z,7.29
2023-03-27T07:43:19.555Z,7.34
2023-03-27T07:47:21.995Z,7.66
2023-03-27T07:51:24.967Z,7.76
2023-03-27T07:55:29.679Z,7.47
2023-03-27T07:59:41.748Z,7.51
2023-03-27T08:03:50.733Z,7.72
2023-03-27T08:07:54.617Z,7.82
2023-03-27T08:12:15.686Z,7.73
2023-03-27T08:16:27.857Z,7.56
2023-03-27T08:20:31.673Z,7.67
2023-03-27T08:24:34.331Z,7.52
2023-03-27T08:28:43.640Z,7.61
2023-03-27T08:32:46.367Z,7.68
2023-03-27T08:36:49.609Z,8.10
2023-03-27T08:40:54.619Z,8.36
2023-03-27T08:45:27.901Z,8.06
2023-03-27T08:49:39.934Z,8.00
2023-03-27T08:54:27.436Z,7.83
2023-03-27T08:58:33.049Z,7.85
2023-03-27T09:02:48.498Z,7.52
2023-03-27T09:07:01.773Z,7.90
2023-03-27T09:11:45.160Z,7.23
2023-03-27T09:16:00.739Z,7.51
2023-03-27T09:20:19.945Z,7.49
2023-03-27T09:24:56.813Z,7.52
2023-03-27T09:29:25.937Z,7.52
2023-03-27T09:33:41.512Z,7.53
2023-03-27T09:37:44.886Z,7.72
2023-03-27T09:41:51.075Z,7.15
2023-03-27T09:45:56.653Z,7.06
2023-03-27T09:50:11.894Z,7.12
2023-03-27T09:54:32.066Z,7.26
2023-03-27T09:58:45.921Z,6.82
2023-03-27T10:02:48.070Z,6.98
2023-03-27T10:07:00.129Z,6.87
2023-03-27T10:11:24.865Z,6.52
2023-03-27T10:15:35.165Z,6.55
2023-03-27T10:19:42.116Z,6.88
2023-03-27T10:23:49.788Z,6.57
2023-03-27T10:28:18.604Z,6.56
2023-03-27T10:32:49.692Z,6.24
2023-03-27T10:37:28.423Z,6.31
2023-03-27T10:41:49.374Z,6.32
2023-03-27T10:45:54.794Z,6.47
2023-03-27T10:50:09.717Z,7.07
2023-03-27T10:54:51.214Z,7.19
2023-03-27T10:59:00.479Z,6.75
2023-03-27T11:03:23.874Z,6.91
2023-03-27T11:07:46.672Z,7.07
2023-03-27T11:12:09.479Z,6.69
2023-03-27T11:16:25.584Z,6.92
2023-03-27T11:20:51.852Z,7.23
2023-03-27T11:25:29.843Z,7.25
2023-03-27T11:29:58.856Z,6.84
2023-03-27T11:34:12.987Z,6.57
2023-03-27T11:38:28.764Z,6.39
2023-03-27T11:42:36.845Z,6.52
2023-03-27T11:47:01.239Z,6.90
2023-03-27T11:51:36.902Z,6.70
2023-03-27T11:56:17.593Z,7.13
2023-03-27T12:00:39.270Z,7.18
2023-03-27T12:05:00.479Z,7.19
2023-03-27T12:09:22.146Z,6.79
2023-03-27T12:14:17.711Z,7.36
2023-03-27T12:19:13.731Z,7.44
2023-03-27T12:24:15.365Z,7.21
2023-03-27T12:29:22.670Z,7.26
2023-03-27T12:33:56.106Z,6.97
2023-03-27T12:38:03.181Z,6.94
2023-03-27T12:42:14.517Z,7.06
2023-03-27T12:46:25.182Z,7.09
2023-03-27T12:50:34.457Z,7.32
2023-03-27T12:54:39.147Z,7.23
2023-03-27T12:59:12.392Z,7.05
2023-03-27T13:03:48.651Z,6.92
2023-03-27T13:19:45.758Z,7.27
2023-03-27T13:24:38.376Z,7.25
2023-03-27T13:29:20.511Z,7.35
2023-03-27T13:34:57.172Z,7.12
2023-03-27T13:39:59.598Z,6.51
2023-03-27T13:45:00.611Z,6.46
2023-03-27T14:09:39.936Z,6.59
2023-03-27T14:14:34.469Z,6.62
2023-03-27T14:18:55.827Z,6.23
2023-03-27T14:23:15.103Z,6.02
2023-03-27T14:27:49.189Z,5.85
2023-03-27T14:31:53.541Z,5.74
2023-03-27T14:36:06.762Z,5.76
2023-03-27T14:40:30.685Z,5.72
2023-03-27T14:44:36.309Z,5.46
2023-03-27T14:48:51.285Z,5.11
2023-03-27T14:52:57.784Z,5.14
2023-03-27T14:57:09.207Z,4.95
2023-03-27T15:01:18.609Z,4.87
2023-03-27T15:05:26.518Z,4.67
2023-03-27T15:09:37.313Z,4.74
2023-03-27T15:13:57.511Z,4.82
2023-03-27T15:18:22.421Z,4.52
2023-03-27T15:22:32.044Z,4.70
2023-03-27T15:26:35.411Z,4.37
2023-03-27T15:30:44.964Z,4.05
2023-03-27T15:34:51.196Z,3.99
2023-03-27T15:38:58.498Z,3.82
2023-03-27T15:43:14.042Z,3.87
2023-03-27T15:47:25.005Z,3.65
2023-03-27T15:51:29.906Z,3.56
2023-03-27T15:55:47.693Z,3.54
2023-03-27T15:59:52.871Z,3.59
2023-03-27T16:04:01.720Z,3.51
2023-03-27T16:08:05.310Z,3.63
2023-03-27T16:12:11.033Z,3.56
2023-03-27T16:16:24.079Z,3.44
2023-03-27T16:20:26.047Z,3.35
2023-03-27T16:24:27.981Z,3.49
2023-03-27T16:28:30.573Z,3.35
2023-03-27T16:32:32.612Z,3.35
2023-03-27T16:36:35.566Z,3.35
2023-03-27T16:40:37.485Z,3.50
2023-03-27T16:44:39.616Z,3.37
2023-03-27T16:48:41.812Z,3.32
2023-03-27T16:52:43.821Z,3.37
2023-03-27T16:56:46.167Z,3.33
2023-03-27T17:00:48.450Z,3.19
2023-03-27T17:04:50.536Z,3.15
2023-03-27T17:08:55.440Z,3.17
2023-03-27T17:12:57.964Z,3.06
2023-03-27T17:16:59.614Z,3.15
2023-03-27T17:21:01.974Z,3.09
2023-03-27T17:25:06.251Z,3.01
2023-03-27T17:29:10.227Z,3.05
2023-03-27T17:33:13.330Z,2.87
2023-03-27T17:37:16.897Z,2.78
2023-03-27T17:41:20.177Z,2.75
2023-03-27T17:45:23.896Z,2.67
2023-03-27T17:49:25.922Z,2.77
2023-03-27T17:53:29.103Z,2.69
2023-03-27T17:57:30.841Z,2.73
2023-03-27T18:01:33.326Z,2.67
2023-03-27T18:05:40.977Z,2.58
2023-03-27T18:09:43.158Z,2.52
2023-03-27T18:13:51.192Z,2.62
2023-03-27T18:17:53.380Z,2.61
2023-03-27T18:21:55.662Z,2.51
2023-03-27T18:25:57.866Z,2.31
2023-03-27T18:29:59.845Z,2.34
2023-03-27T18:34:02.997Z,2.16
2023-03-27T18:38:05.754Z,2.22
2023-03-27T18:42:08.684Z,2.19
2023-03-27T18:46:16.488Z,2.00
2023-03-27T18:50:18.738Z,1.83
2023-03-27T18:54:21.130Z,1.99
2023-03-27T18:58:29.597Z,1.73
2023-03-27T19:02:32.253Z,1.76
2023-03-27T19:06:36.181Z,1.72
2023-03-27T19:10:39.099Z,1.58
2023-03-27T19:15:00.439Z,1.66
2023-03-27T19:19:06.158Z,1.54
2023-03-27T19:23:14.276Z,1.49
2023-03-27T19:27:23.919Z,1.45
2023-03-27T19:31:28.217Z,1.20
2023-03-27T19:35:33.106Z,1.32
2023-03-27T19:39:35.135Z,1.29
2023-03-27T19:43:37.361Z,1.23
2023-03-27T19:47:39.436Z,1.16
2023-03-27T19:51:41.812Z,0.98
2023-03-27T19:55:46.723Z,0.99
2023-03-27T19:59:48.694Z,0.96
2023-03-27T20:03:50.391Z,0.93
2023-03-27T20:07:52.421Z,0.83
2023-03-27T20:11:54.901Z,0.78
2023-03-27T20:15:58.033Z,0.79
2023-03-27T20:20:00.793Z,0.62
2023-03-27T20:24:05.710Z,0.44
2023-03-27T20:28:12.660Z,0.39
2023-03-27T20:32:16.759Z,0.46
2023-03-27T20:36:22.929Z,0.61
2023-03-27T20:40:27.834Z,0.36
2023-03-27T20:44:35.460Z,0.39
2023-03-27T20:48:41.566Z,0.31
2023-03-27T20:52:46.771Z,0.30
2023-03-27T20:56:48.831Z,0.12
2023-03-27T21:00:52.860Z,0.19
2023-03-27T21:04:54.888Z,0.03
2023-03-27T21:08:56.889Z,-0.14
2023-03-27T21:12:59.627Z,-0.31
2023-03-27T21:17:02.147Z,-0.29
2023-03-27T21:21:04.857Z,-0.25
2023-03-27T21:25:07.317Z,-0.18
2023-03-27T21:29:12.426Z,-0.27
2023-03-27T21:33:15.887Z,-0.43
2023-03-27T21:37:17.910Z,-0.37
2023-03-27T21:41:20.289Z,-0.38
2023-03-27T21:45:22.313Z,-0.53
2023-03-27T21:49:25.589Z,-0.53
2023-03-27T21:53:28.004Z,-0.62
2023-03-27T21:57:29.950Z,-0.74
2023-03-27T22:01:32.143Z,-0.70
2023-03-27T22:05:38.035Z,-0.81
2023-03-27T22:09:39.986Z,-0.96
2023-03-27T22:13:43.394Z,-0.91
2023-03-27T22:17:46.395Z,-0.92
2023-03-27T22:21:48.395Z,-0.99
2023-03-27T22:25:54.420Z,-1.09
2023-03-27T22:29:56.461Z,-1.19
2023-03-27T22:33:58.373Z,-1.17
2023-03-27T22:38:01.363Z,-1.27
2023-03-27T22:42:03.351Z,-1.09
2023-03-27T22:46:06.373Z,-1.16
2023-03-27T22:50:08.867Z,-1.24
2023-03-27T22:54:10.818Z,-1.22
2023-03-27T22:58:12.680Z,-1.31
2023-03-27T23:02:14.702Z,-1.27
2023-03-27T23:06:22.058Z,-1.33
2023-03-27T23:10:23.989Z,-1.40
2023-03-27T23:14:26.088Z,-1.36
2023-03-27T23:18:28.009Z,-1.26
2023-03-27T23:22:29.616Z,-1.56
2023-03-27T23:26:31.618Z,-1.57
2023-03-27T23:30:33.558Z,-1.55
2023-03-27T23:34:35.669Z,-1.59
2023-03-27T23:38:37.805Z,-1.67
2023-03-27T23:42:39.723Z,-1.71
2023-03-27T23:46:41.858Z,-1.68
2023-03-27T23:50:45.314Z,-1.77
2023-03-27T23:54:47.239Z,-1.77
2023-03-27T23:58:49.170Z,-1.98
